createdAt,value
2022-11-04T00:00:50.505Z,99685.16
2022-11-04T00:03:17.584Z,99698.06
2022-11-04T00:05:44.556Z,99701.69
2022-11-04T00:08:20.886Z,99703.69
2022-11-04T00:10:57.528Z,99702.53
2022-11-04T00:13:24.427Z,99712.09
2022-11-04T00:16:01.068Z,99711.66
2022-11-04T00:18:27.955Z,99725.19
2022-11-04T00:21:06.718Z,99730.50
2022-11-04T00:23:43.627Z,99729.31
2022-11-04T00:26:20.516Z,99726.84
2022-11-04T00:28:48.332Z,99725.53
2022-11-04T00:31:24.608Z,99729.53
2022-11-04T00:33:52.547Z,99735.50
2022-11-04T00:36:20.721Z,99747.56
2022-11-04T00:38:47.605Z,99743.44
2022-11-04T00:41:24.656Z,99742.97
2022-11-04T00:43:51.810Z,99749.75
2022-11-04T00:46:18.648Z,99742.47
2022-11-04T00:48:45.678Z,99738.38
2022-11-04T00:53:40.705Z,99754.41
2022-11-04T00:56:07.816Z,99762.84
2022-11-04T00:58:34.986Z,99760.34
2022-11-04T01:01:01.864Z,99763.16
2022-11-04T01:03:28.717Z,99767.63
2022-11-04T01:05:58.203Z,99776.06
2022-11-04T01:08:25.067Z,99776.88
2022-11-04T01:10:52.068Z,99770.75
2022-11-04T01:13:19.107Z,99779.19
2022-11-04T01:15:46.077Z,99787.63
2022-11-04T01:18:12.928Z,99790.44
2022-11-04T01:20:39.908Z,99786.00
2022-11-04T01:23:06.865Z,99795.09
2022-11-04T01:25:33.698Z,99800.72
2022-11-04T01:28:00.593Z,99801.06
2022-11-04T01:30:27.596Z,99801.41
2022-11-04T01:32:54.515Z,99805.03
2022-11-04T01:35:21.408Z,99802.56
2022-11-04T01:37:48.226Z,99807.69
2022-11-04T01:40:15.047Z,99818.09
2022-11-04T01:42:41.998Z,99824.34
2022-11-04T01:45:14.813Z,99819.94
2022-11-04T01:47:44.944Z,99831.50
2022-11-04T01:50:15.599Z,99834.31
2022-11-04T01:52:52.727Z,99839.41
2022-11-04T01:55:21.536Z,99834.16
2022-11-04T01:57:50.626Z,99846.56
2022-11-04T02:00:18.456Z,99854.47
2022-11-04T02:02:51.394Z,99852.03
2022-11-04T02:05:19.096Z,99857.16
2022-11-04T02:07:49.827Z,99865.09
2022-11-04T02:10:17.035Z,99867.41
2022-11-04T02:12:53.425Z,99866.91
2022-11-04T02:15:24.046Z,99870.91
2022-11-04T02:17:58.555Z,99874.03
2022-11-04T02:20:25.676Z,99883.28
2022-11-04T02:23:01.665Z,99890.06
2022-11-04T02:25:31.846Z,99897.19
2022-11-04T02:28:18.796Z,99899.47
2022-11-04T02:30:53.058Z,99900.63
2022-11-04T02:33:23.118Z,99908.22
2022-11-04T02:35:50.245Z,99916.50
2022-11-04T02:38:17.536Z,99922.13
2022-11-04T02:40:53.840Z,99922.13
2022-11-04T02:43:21.035Z,99928.41
2022-11-04T02:45:49.586Z,99934.34
2022-11-04T02:48:16.574Z,99939.16
2022-11-04T02:50:44.616Z,99944.28
2022-11-04T02:53:20.597Z,99954.19
2022-11-04T02:55:49.973Z,99971.03
2022-11-04T02:58:20.401Z,99971.38
2022-11-04T03:00:48.387Z,99989.38
2022-11-04T03:03:18.396Z,99984.06
2022-11-04T03:05:48.085Z,99993.16
2022-11-04T03:08:21.017Z,99994.31
2022-11-04T03:10:51.638Z,99999.09
2022-11-04T03:13:25.965Z,99998.63
2022-11-04T03:16:00.428Z,100004.09
2022-11-04T03:18:37.164Z,100008.03
2022-11-04T03:21:10.147Z,100008.03
2022-11-04T03:23:37.504Z,100017.59
2022-11-04T03:26:14.006Z,100019.91
2022-11-04T03:28:46.795Z,100021.91
2022-11-04T03:31:20.336Z,100027.03
2022-11-04T03:33:49.055Z,100026.19
2022-11-04T03:36:16.366Z,100031.81
2022-11-04T03:38:43.276Z,100025.72
2022-11-04T03:41:14.691Z,100028.84
2022-11-04T03:43:42.157Z,100035.59
2022-11-04T03:46:09.686Z,100025.88
2022-11-04T03:48:36.833Z,100025.88
2022-11-04T03:51:03.816Z,100034.28
2022-11-04T03:53:31.269Z,100043.84
2022-11-04T03:56:08.474Z,100048.63
2022-11-04T03:58:44.728Z,100043.34
2022-11-04T04:01:17.755Z,100048.13
2022-11-04T04:03:53.836Z,100047.66
2022-11-04T04:06:24.894Z,100062.00
2022-11-04T04:08:55.092Z,100058.34
2022-11-04T04:11:32.545Z,100065.16
2022-11-04T04:14:09.356Z,100072.75
2022-11-04T04:16:36.517Z,100082.25
2022-11-04T04:19:06.397Z,100084.56
2022-11-04T04:21:36.065Z,100088.53
2022-11-04T04:24:14.465Z,100084.06
2022-11-04T04:26:51.476Z,100091.66
2022-11-04T04:29:19.106Z,100104.03
2022-11-04T04:31:51.248Z,100105.53
2022-11-04T04:34:20.205Z,100105.00
2022-11-04T04:36:53.524Z,100117.06
2022-11-04T04:39:32.565Z,100120.19
2022-11-04T04:42:09.662Z,100133.72
2022-11-04T04:44:46.304Z,100137.97
2022-11-04T04:47:20.381Z,100141.63
2022-11-04T04:49:51.306Z,100149.88
2022-11-04T04:52:18.495Z,100169.50
2022-11-04T04:54:45.586Z,100166.16
2022-11-04T04:57:12.537Z,100160.56
2022-11-04T04:59:39.346Z,100175.75
2022-11-04T05:02:06.300Z,100188.13
2022-11-04T05:04:33.345Z,100199.34
2022-11-04T05:07:00.117Z,100194.88
2022-11-04T05:09:27.006Z,100210.03
2022-11-04T05:11:53.985Z,100216.81
2022-11-04T05:14:21.038Z,100221.91
2022-11-04T05:16:47.897Z,100223.88
2022-11-04T05:19:14.790Z,100234.63
2022-11-04T05:21:41.595Z,100243.34
2022-11-04T05:24:08.527Z,100252.41
2022-11-04T05:26:35.426Z,100261.00
2022-11-04T05:29:02.336Z,100259.97
2022-11-04T05:31:30.666Z,100258.00
2022-11-04T05:33:59.267Z,100272.34
2022-11-04T05:36:26.304Z,100269.53
2022-11-04T05:38:55.908Z,100275.44
2022-11-04T05:41:29.883Z,100283.38
2022-11-04T05:43:58.117Z,100306.63
2022-11-04T05:46:25.456Z,100299.66
2022-11-04T05:48:52.582Z,100314.00
2022-11-04T05:51:20.749Z,100320.44
2022-11-04T05:53:47.802Z,100326.69
2022-11-04T05:56:14.832Z,100331.47
2022-11-04T05:58:41.720Z,100341.00
2022-11-04T06:01:13.137Z,100343.00
2022-11-04T06:03:39.968Z,100349.75
2022-11-04T06:06:06.838Z,100360.16
2022-11-04T06:08:33.668Z,100364.09
2022-11-04T06:11:00.580Z,100370.00
2022-11-04T06:13:27.801Z,100377.09
2022-11-04T06:15:54.638Z,100373.44
2022-11-04T06:18:21.434Z,100380.53
2022-11-04T06:20:48.417Z,100387.47
2022-11-04T06:23:15.467Z,100386.94
2022-11-04T06:25:44.672Z,100398.47
2022-11-04T06:28:11.646Z,100414.47
2022-11-04T06:30:38.721Z,100418.41
2022-11-04T06:33:05.912Z,100429.13
2022-11-04T06:35:32.701Z,100439.50
2022-11-04T06:37:59.771Z,100438.47
2022-11-04T06:40:26.950Z,100445.22
2022-11-04T06:42:53.721Z,100458.09
2022-11-04T06:45:20.749Z,100464.00
2022-11-04T06:47:47.511Z,100472.72
2022-11-04T06:50:15.021Z,100473.06
2022-11-04T06:52:42.668Z,100483.44
2022-11-04T06:55:10.149Z,100486.22
2022-11-04T06:57:37.058Z,100496.59
2022-11-04T07:00:04.271Z,100501.06
2022-11-04T07:02:31.290Z,100506.34
2022-11-04T07:07:45.013Z,100521.81
2022-11-04T07:10:12.191Z,100530.13
2022-11-04T07:12:39.149Z,100548.25
2022-11-04T07:15:06.552Z,100559.19
2022-11-04T07:17:33.475Z,100563.84
2022-11-04T07:20:00.619Z,100570.19
2022-11-04T07:22:27.623Z,100586.06
2022-11-04T07:24:54.649Z,100586.25
2022-11-04T07:27:21.531Z,100597.66
2022-11-04T07:29:48.408Z,100602.34
2022-11-04T07:32:15.363Z,100605.53
2022-11-04T07:34:42.181Z,100611.38
2022-11-04T07:37:08.997Z,100621.13
2022-11-04T07:39:35.840Z,100619.16
2022-11-04T07:42:02.681Z,100634.19
2022-11-04T07:44:29.618Z,100644.78
2022-11-04T07:46:56.745Z,100650.31
2022-11-04T07:49:23.671Z,100658.97
2022-11-04T07:51:50.569Z,100658.03
2022-11-04T07:54:17.533Z,100653.75
2022-11-04T07:56:44.501Z,100671.59
2022-11-04T07:59:11.747Z,100671.81
2022-11-04T08:01:38.395Z,100681.59
2022-11-04T08:04:05.421Z,100690.50
2022-11-04T08:06:32.227Z,100697.47
2022-11-04T08:09:09.677Z,100708.06
2022-11-04T08:11:36.516Z,100710.78
2022-11-04T08:14:04.453Z,100712.09
2022-11-04T08:16:34.292Z,100712.31
2022-11-04T08:19:02.706Z,100718.78
2022-11-04T08:21:30.697Z,100728.22
2022-11-04T08:23:57.481Z,100731.53
2022-11-04T08:26:24.439Z,100727.28
2022-11-04T08:28:52.074Z,100738.50
2022-11-04T08:31:18.845Z,100738.53
2022-11-04T08:33:45.633Z,100742.03
2022-11-04T08:36:16.939Z,100751.28
2022-11-04T08:38:43.540Z,100749.00
2022-11-04T08:41:11.361Z,100767.53
2022-11-04T08:43:38.030Z,100770.00
2022-11-04T08:46:05.918Z,100771.97
2022-11-04T08:48:32.640Z,100778.44
2022-11-04T08:50:59.366Z,100771.97
2022-11-04T08:53:26.175Z,100781.22
2022-11-04T08:55:52.906Z,100787.69
2022-11-04T08:58:20.011Z,100799.75
2022-11-04T09:00:46.840Z,100801.72
2022-11-04T09:03:13.908Z,100811.81
2022-11-04T09:05:49.340Z,100821.91
2022-11-04T09:08:17.004Z,100817.44
2022-11-04T09:10:44.991Z,100827.53
2022-11-04T09:13:12.703Z,100830.34
2022-11-04T09:15:39.764Z,100829.16
2022-11-04T09:18:06.529Z,100830.53
2022-11-04T09:20:33.792Z,100824.63
2022-11-04T09:23:00.467Z,100822.31
2022-11-04T09:25:27.138Z,100823.69
2022-11-04T09:27:57.385Z,100831.75
2022-11-04T09:30:24.076Z,100831.16
2022-11-04T09:32:52.904Z,100840.91
2022-11-04T09:35:19.770Z,100853.81
2022-11-04T09:37:51.873Z,100854.31
2022-11-04T09:40:20.530Z,100861.31
2022-11-04T09:42:47.134Z,100855.06
2022-11-04T09:45:22.747Z,100856.41
2022-11-04T09:47:58.040Z,100869.28
2022-11-04T09:50:26.073Z,100859.44
2022-11-04T09:52:57.647Z,100865.56
2022-11-04T09:55:39.535Z,100864.44
2022-11-04T09:58:09.134Z,100863.31
2022-11-04T10:00:38.164Z,100868.63
2022-11-04T10:03:23.708Z,100861.81
2022-11-04T10:05:57.751Z,100862.66
2022-11-04T10:08:39.936Z,100875.03
2022-11-04T10:11:26.822Z,100874.22
2022-11-04T10:13:53.671Z,100884.31
2022-11-04T10:16:23.150Z,100884.31
2022-11-04T10:19:10.007Z,100882.66
2022-11-04T10:21:55.291Z,100902.84
2022-11-04T10:24:32.050Z,100902.00
2022-11-04T10:27:04.066Z,100904.81
2022-11-04T10:29:40.425Z,100916.03
2022-11-04T10:32:22.547Z,100918.84
2022-11-04T10:34:53.455Z,100924.47
2022-11-04T10:37:20.631Z,100926.16
2022-11-04T10:39:47.501Z,100937.38
2022-11-04T10:42:16.468Z,100941.34
2022-11-04T10:44:43.679Z,100937.38
2022-11-04T10:47:10.329Z,100944.34
2022-11-04T10:50:26.559Z,100956.75
2022-11-04T10:52:42.844Z,100964.84
2022-11-04T10:55:19.091Z,100953.94
2022-11-04T11:25:50.574Z,100982.13
2022-11-04T11:28:26.892Z,100988.59
2022-11-04T11:31:01.812Z,100989.44
2022-11-04T11:33:31.634Z,100988.59
2022-11-04T11:36:12.677Z,100990.25
2022-11-04T11:38:53.550Z,100997.53
2022-11-04T11:41:25.909Z,100994.72
2022-11-04T11:43:54.596Z,100999.19
2022-11-04T11:46:23.732Z,100995.25
2022-11-04T11:48:52.869Z,101011.19
2022-11-04T11:51:29.027Z,101009.72
2022-11-04T11:54:02.831Z,101015.88
2022-11-04T11:56:58.743Z,101016.38
2022-11-04T12:02:13.546Z,101033.13
2022-11-04T12:10:49.815Z,101022.72
2022-11-04T12:13:26.548Z,101015.75
2022-11-04T12:16:06.420Z,101009.59
2022-11-04T12:18:43.322Z,101007.72
2022-11-04T12:21:21.858Z,101009.22
2022-11-04T12:23:59.548Z,101017.09
2022-11-04T12:26:27.030Z,101001.47
2022-11-04T12:29:05.074Z,101010.25
2022-11-04T12:31:42.291Z,101013.88
2022-11-04T12:34:18.873Z,101011.91
2022-11-04T12:36:56.230Z,101015.84
2022-11-04T12:39:24.504Z,101008.25
2022-11-04T12:44:54.506Z,101025.13
2022-11-04T12:47:23.100Z,101027.41
2022-11-04T12:50:06.026Z,101031.88
2022-11-04T12:52:33.529Z,101038.34
2022-11-04T12:55:10.030Z,101046.44
2022-11-04T12:57:45.223Z,101049.25
2022-11-04T13:00:14.545Z,101049.78
2022-11-04T13:02:51.241Z,101048.94
2022-11-04T13:05:28.525Z,101058.75
2022-11-04T13:08:05.369Z,101074.78
2022-11-04T13:10:40.890Z,101067.47
2022-11-04T13:13:10.340Z,101074.78
2022-11-04T13:15:44.518Z,101065.50
2022-11-04T13:18:15.881Z,101064.66
2022-11-04T13:20:48.685Z,101078.41
2022-11-04T13:23:19.003Z,101078.41
2022-11-04T13:25:48.707Z,101082.03
2022-11-04T13:28:20.274Z,101078.63
2022-11-04T13:31:01.720Z,101087.91
2022-11-04T13:33:28.979Z,101090.38
2022-11-04T13:35:59.488Z,101082.47
2022-11-04T13:38:31.874Z,101086.63
2022-11-04T13:41:12.121Z,101090.81
2022-11-04T13:43:42.224Z,101097.78
2022-11-04T13:46:09.468Z,101091.03
2022-11-04T13:48:38.754Z,101082.69
2022-11-04T13:51:07.228Z,101084.88
2022-11-04T13:53:44.028Z,101078.00
2022-11-04T13:56:34.808Z,101077.69
2022-11-04T13:59:04.601Z,101082.78
2022-11-04T14:01:33.247Z,101094.38
2022-11-04T14:04:07.165Z,101096.66
2022-11-04T14:06:44.106Z,101099.78
2022-11-04T14:09:20.928Z,101097.28
2022-11-04T14:12:08.046Z,101100.09
2022-11-04T14:14:35.664Z,101093.44
2022-11-04T14:17:04.910Z,101085.00
2022-11-04T14:19:46.723Z,101079.69
2022-11-04T14:22:15.951Z,101082.50
2022-11-04T14:24:43.064Z,101091.22
2022-11-04T14:27:19.984Z,101097.50
2022-11-04T14:29:52.104Z,101101.16
2022-11-04T14:32:24.397Z,101111.84
2022-11-04T14:34:58.765Z,101110.19
2022-11-04T14:37:29.455Z,101118.13
2022-11-04T14:39:59.485Z,101129.88
2022-11-04T14:42:47.270Z,101131.34
2022-11-04T14:45:17.555Z,101138.31
2022-11-04T14:47:47.469Z,101125.41
2022-11-04T14:50:18.279Z,101148.75
2022-11-04T14:52:45.675Z,101148.22
2022-11-04T14:55:13.256Z,101155.81
2022-11-04T14:57:41.768Z,101155.31
2022-11-04T15:00:22.093Z,101151.66
2022-11-04T15:02:49.980Z,101154.75
2022-11-04T15:05:25.570Z,101172.47
2022-11-04T15:07:52.809Z,101178.41
2022-11-04T15:10:22.962Z,101179.53
2022-11-04T15:12:51.062Z,101191.09
2022-11-04T15:15:28.089Z,101190.28
2022-11-04T15:17:58.083Z,101198.69
2022-11-04T15:20:26.016Z,101196.19
2022-11-04T15:22:55.265Z,101194.22
2022-11-04T15:25:22.527Z,101178.47
2022-11-04T15:27:49.632Z,101171.22
2022-11-04T15:30:21.799Z,101174.03
2022-11-04T15:32:56.144Z,101177.97
2022-11-04T15:35:23.520Z,101182.75
2022-11-04T15:37:52.575Z,101177.44
2022-11-04T15:40:20.085Z,101174.13
2022-11-04T15:42:50.996Z,101167.66
2022-11-04T15:45:21.316Z,101171.59
2022-11-04T15:47:48.536Z,101175.56
2022-11-04T15:50:21.200Z,101175.56
2022-11-04T15:52:52.295Z,101170.78
2022-11-04T15:55:21.631Z,101170.78
2022-11-04T15:57:50.432Z,101185.97
2022-11-04T16:00:20.094Z,101193.69
2022-11-04T16:02:53.661Z,101213.66
2022-11-04T16:05:23.960Z,101218.72
2022-11-04T16:07:51.786Z,101217.09
2022-11-04T16:10:30.553Z,101223.28
2022-11-04T16:12:59.087Z,101211.75
2022-11-04T16:15:36.140Z,101212.59
2022-11-04T16:18:05.040Z,101219.91
2022-11-04T16:20:32.979Z,101217.59
2022-11-04T16:23:01.659Z,101223.22
2022-11-04T16:25:31.316Z,101220.41
2022-11-04T16:28:00.586Z,101217.28
2022-11-04T16:30:29.142Z,101225.72
2022-11-04T16:33:07.633Z,101225.41
2022-11-04T16:35:34.941Z,101231.03
2022-11-04T16:38:02.002Z,101242.25
2022-11-04T16:40:29.338Z,101253.50
2022-11-04T16:42:58.138Z,101254.06
2022-11-04T16:45:27.728Z,101246.75
2022-11-04T16:47:55.416Z,101256.31
2022-11-04T16:50:24.827Z,101255.50
2022-11-04T16:52:52.550Z,101256.31
2022-11-04T16:55:19.987Z,101258.31
2022-11-04T16:57:53.771Z,101265.06
2022-11-04T17:00:23.120Z,101270.63
2022-11-04T17:02:50.737Z,101279.88
2022-11-04T17:05:19.412Z,101279.06
2022-11-04T17:07:54.245Z,101282.69
2022-11-04T17:10:26.510Z,101279.88
2022-11-04T17:12:53.834Z,101285.50
2022-11-04T17:15:21.812Z,101279.06
2022-11-04T17:17:49.739Z,101285.50
2022-11-04T17:20:18.594Z,101292.78
2022-11-04T17:22:47.427Z,101301.22
2022-11-04T17:25:20.140Z,101304.88
2022-11-04T17:27:47.791Z,101305.69
2022-11-04T17:30:17.279Z,101306.53
2022-11-04T17:32:44.791Z,101307.38
2022-11-04T17:35:12.911Z,101311.88
2022-11-04T17:37:41.270Z,101311.88
2022-11-04T17:40:10.282Z,101315.53
2022-11-04T17:42:46.842Z,101306.25
2022-11-04T17:45:13.871Z,101307.09
2022-11-04T17:47:41.141Z,101307.09
2022-11-04T17:50:09.256Z,101309.06
2022-11-04T17:52:37.293Z,101308.22
2022-11-04T17:55:05.614Z,101306.53
2022-11-04T17:57:34.249Z,101314.13
2022-11-04T18:00:03.860Z,101321.72
2022-11-04T18:02:31.104Z,101329.31
2022-11-04T18:04:58.562Z,101336.13
2022-11-04T18:07:25.473Z,101331.63
2022-11-04T18:09:52.531Z,101330.78
2022-11-04T18:12:28.803Z,101335.03
2022-11-04T18:14:56.191Z,101329.41
2022-11-04T18:17:25.252Z,101333.66
2022-11-04T18:19:52.751Z,101332.00
2022-11-04T18:22:20.098Z,101341.25
2022-11-04T18:24:48.553Z,101337.09
2022-11-04T18:27:15.631Z,101343.00
2022-11-04T18:29:44.008Z,101341.34
2022-11-04T18:32:11.015Z,101343.63
2022-11-04T18:34:38.629Z,101350.38
2022-11-04T18:37:05.923Z,101345.38
2022-11-04T18:39:35.556Z,101347.34
2022-11-04T18:42:02.795Z,101352.44
2022-11-04T18:44:29.734Z,101352.44
2022-11-04T18:46:56.944Z,101354.72
2022-11-04T18:49:24.228Z,101356.97
2022-11-04T18:51:51.223Z,101357.28
2022-11-04T18:54:18.256Z,101356.72
2022-11-04T18:56:45.231Z,101359.53
2022-11-04T18:59:14.518Z,101360.97
2022-11-04T19:01:42.579Z,101360.44
2022-11-04T19:04:09.899Z,101362.72
2022-11-04T19:06:40.114Z,101369.47
2022-11-04T19:09:40.110Z,101364.16
2022-11-04T19:12:15.769Z,101362.78
2022-11-04T19:14:42.845Z,101366.75
2022-11-04T19:17:10.095Z,101369.00
2022-11-04T19:19:37.252Z,101368.44
2022-11-04T19:22:04.255Z,101375.53
2022-11-04T19:24:31.434Z,101376.13
2022-11-04T19:26:58.467Z,101372.50
2022-11-04T19:29:25.511Z,101373.91
2022-11-04T19:31:52.802Z,101369.44
2022-11-04T19:34:19.758Z,101380.97
2022-11-04T19:36:46.959Z,101371.16
2022-11-04T19:39:13.965Z,101374.28
2022-11-04T19:41:50.665Z,101384.69
2022-11-04T19:44:18.810Z,101378.50
2022-11-04T19:46:46.206Z,101383.63
2022-11-04T19:49:14.074Z,101390.34
2022-11-04T19:51:41.414Z,101375.78
2022-11-04T19:54:08.750Z,101386.19
2022-11-04T19:56:36.924Z,101378.06
2022-11-04T19:59:06.240Z,101380.31
2022-11-04T20:01:35.321Z,101379.78
2022-11-04T20:04:03.335Z,101387.66
2022-11-04T20:06:32.713Z,101392.44
2022-11-04T20:09:02.263Z,101393.59
2022-11-04T20:11:29.257Z,101395.84
2022-11-04T20:13:56.343Z,101400.09
2022-11-04T20:16:24.807Z,101393.09
2022-11-04T20:18:53.371Z,101389.44
2022-11-04T20:21:21.600Z,101398.19
2022-11-04T20:23:48.661Z,101397.63
2022-11-04T20:26:20.639Z,101394.00
2022-11-04T20:28:48.206Z,101399.94
2022-11-04T20:31:20.263Z,101408.63
2022-11-04T20:33:48.168Z,101400.50
2022-11-04T20:36:16.442Z,101415.97
2022-11-04T20:38:44.023Z,101408.69
2022-11-04T20:41:15.845Z,101404.50
2022-11-04T20:43:42.794Z,101411.25
2022-11-04T20:46:11.036Z,101411.53
2022-11-04T20:48:38.542Z,101422.25
2022-11-04T20:51:06.583Z,101423.38
2022-11-04T20:53:33.695Z,101420.84
2022-11-04T20:56:00.929Z,101423.66
2022-11-04T20:58:27.991Z,101424.78
2022-11-04T21:00:55.179Z,101431.22
2022-11-04T21:03:22.199Z,101430.09
2022-11-04T21:05:49.221Z,101429.50
2022-11-04T21:08:16.314Z,101430.34
2022-11-04T21:10:43.415Z,101439.88
2022-11-04T21:13:10.633Z,101434.28
2022-11-04T21:15:40.834Z,101427.25
2022-11-04T21:18:09.009Z,101428.31
2022-11-04T21:20:39.231Z,101420.47
2022-11-04T21:23:06.935Z,101424.34
2022-11-04T21:25:42.932Z,101421.78
2022-11-04T21:28:10.565Z,101422.00
2022-11-04T21:30:39.173Z,101423.09
2022-11-04T21:33:06.927Z,101428.94
2022-11-04T21:35:36.284Z,101425.22
2022-11-04T21:38:03.837Z,101429.97
2022-11-04T21:40:31.289Z,101433.31
2022-11-04T21:42:58.619Z,101433.56
2022-11-04T21:45:25.704Z,101426.53
2022-11-04T21:47:54.043Z,101439.13
2022-11-04T21:50:21.041Z,101438.50
2022-11-04T21:52:48.131Z,101437.94
2022-11-04T21:55:15.139Z,101442.38
2022-11-04T21:57:42.164Z,101451.38
2022-11-04T22:00:10.027Z,101445.13
2022-11-04T22:02:42.816Z,101447.66
2022-11-04T22:05:10.511Z,101443.13
2022-11-04T22:07:47.923Z,101448.13
2022-11-04T22:10:14.860Z,101438.56
2022-11-04T22:12:44.693Z,101447.84
2022-11-04T22:15:14.438Z,101451.47
2022-11-04T22:17:41.400Z,101458.78
2022-11-04T22:20:08.968Z,101453.16
2022-11-04T22:22:37.490Z,101448.06
2022-11-04T22:25:04.762Z,101453.69
2022-11-04T22:27:32.242Z,101450.59
2022-11-04T22:30:00.160Z,101455.38
2022-11-04T22:32:28.056Z,101452.84
2022-11-04T22:34:55.091Z,101454.00
2022-11-04T22:37:22.230Z,101468.06
2022-11-04T22:39:49.140Z,101467.72
2022-11-04T22:42:15.990Z,101455.66
2022-11-04T22:44:43.142Z,101460.16
2022-11-04T22:47:10.201Z,101450.28
2022-11-04T22:49:37.847Z,101456.75
2022-11-04T22:52:05.188Z,101457.03
2022-11-04T22:54:32.262Z,101457.88
2022-11-04T22:56:59.161Z,101458.72
2022-11-04T22:59:26.180Z,101462.38
2022-11-04T23:01:53.275Z,101458.72
2022-11-04T23:04:20.401Z,101453.09
2022-11-04T23:06:47.471Z,101457.03
2022-11-04T23:09:14.951Z,101457.03
2022-11-04T23:11:51.898Z,101447.78
2022-11-04T23:14:30.361Z,101450.59
2022-11-04T23:17:09.185Z,101440.47
2022-11-04T23:19:37.058Z,101438.50
2022-11-04T23:22:14.081Z,101435.69
2022-11-04T23:24:51.791Z,101437.66
2022-11-04T23:27:29.068Z,101433.16
2022-11-04T23:30:05.732Z,101421.94
2022-11-04T23:32:32.764Z,101427.88
2022-11-04T23:35:08.641Z,101438.28
2022-11-04T23:37:35.809Z,101435.75
2022-11-04T23:40:02.714Z,101430.13
2022-11-04T23:42:30.660Z,101433.84
2022-11-04T23:45:06.739Z,101426.03
2022-11-04T23:47:43.872Z,101427.09
2022-11-04T23:50:21.902Z,101444.25
2022-11-04T23:52:59.341Z,101435.53
2022-11-04T23:55:35.842Z,101438.34
2022-11-04T23:58:11.741Z,101440.00
